sensor_id;sensor_type;location;lat;lon;timestamp;pressure;altitude;pressure_sealevel;temperature;humidity
37848;BME280;23688;33.130;-117.188;2023-07-16T00:00:39;99028.03;;;24.35;67.70
37848;BME280;23688;33.130;-117.188;2023-07-16T00:03:05;99030.97;;;24.21;68.75
37848;BME280;23688;33.130;-117.188;2023-07-16T00:05:32;99035.75;;;24.07;69.42
37848;BME280;23688;33.130;-117.188;2023-07-16T00:07:58;99026.59;;;24.20;69.61
37848;BME280;23688;33.130;-117.188;2023-07-16T00:10:24;99022.63;;;24.41;68.75
37848;BME280;23688;33.130;-117.188;2023-07-16T00:12:51;99034.00;;;24.45;68.41
37848;BME280;23688;33.130;-117.188;2023-07-16T00:15:18;99020.91;;;23.97;71.41
37848;BME280;23688;33.130;-117.188;2023-07-16T00:17:44;99023.72;;;23.89;71.65
37848;BME280;23688;33.130;-117.188;2023-07-16T00:20:11;99028.66;;;24.06;72.17
37848;BME280;23688;33.130;-117.188;2023-07-16T00:22:37;99022.88;;;24.29;70.29
37848;BME280;23688;33.130;-117.188;2023-07-16T00:25:07;99026.94;;;24.03;70.53
37848;BME280;23688;33.130;-117.188;2023-07-16T00:27:33;99028.59;;;23.65;72.49
37848;BME280;23688;33.130;-117.188;2023-07-16T00:30:00;99012.56;;;23.73;73.10
37848;BME280;23688;33.130;-117.188;2023-07-16T00:32:26;99024.06;;;23.70;72.62
37848;BME280;23688;33.130;-117.188;2023-07-16T00:34:52;99028.28;;;23.34;74.40
37848;BME280;23688;33.130;-117.188;2023-07-16T00:37:19;99023.63;;;23.47;74.00
37848;BME280;23688;33.130;-117.188;2023-07-16T00:39:45;99015.06;;;23.31;75.23
37848;BME280;23688;33.130;-117.188;2023-07-16T00:42:11;99021.34;;;23.27;75.37
37848;BME280;23688;33.130;-117.188;2023-07-16T00:44:38;99020.63;;;23.17;76.44
37848;BME280;23688;33.130;-117.188;2023-07-16T00:47:04;99010.88;;;23.19;75.28
37848;BME280;23688;33.130;-117.188;2023-07-16T00:49:31;99009.81;;;23.28;76.15
37848;BME280;23688;33.130;-117.188;2023-07-16T00:51:59;99017.69;;;23.34;75.43
37848;BME280;23688;33.130;-117.188;2023-07-16T00:54:28;99020.56;;;23.20;76.96
37848;BME280;23688;33.130;-117.188;2023-07-16T00:56:56;99020.41;;;23.29;75.50
37848;BME280;23688;33.130;-117.188;2023-07-16T00:59:23;99016.75;;;23.35;75.19
37848;BME280;23688;33.130;-117.188;2023-07-16T01:01:50;99006.31;;;23.26;75.45
37848;BME280;23688;33.130;-117.188;2023-07-16T01:04:16;99019.66;;;23.21;75.64
37848;BME280;23688;33.130;-117.188;2023-07-16T01:06:52;99010.31;;;23.00;76.66
37848;BME280;23688;33.130;-117.188;2023-07-16T01:09:20;99017.25;;;23.07;76.59
37848;BME280;23688;33.130;-117.188;2023-07-16T01:11:48;99023.34;;;23.13;75.81
37848;BME280;23688;33.130;-117.188;2023-07-16T01:14:16;99022.22;;;23.26;76.11
37848;BME280;23688;33.130;-117.188;2023-07-16T01:16:44;99020.75;;;23.10;75.88
37848;BME280;23688;33.130;-117.188;2023-07-16T01:19:15;99029.78;;;22.98;76.99
37848;BME280;23688;33.130;-117.188;2023-07-16T01:21:59;99010.69;;;22.76;78.26
37848;BME280;23688;33.130;-117.188;2023-07-16T01:30:27;99028.84;;;22.99;78.32
37848;BME280;23688;33.130;-117.188;2023-07-16T01:32:56;99026.72;;;22.65;80.23
37848;BME280;23688;33.130;-117.188;2023-07-16T01:35:23;99023.00;;;22.77;80.40
37848;BME280;23688;33.130;-117.188;2023-07-16T01:37:50;99023.59;;;22.94;78.65
37848;BME280;23688;33.130;-117.188;2023-07-16T01:40:16;99027.16;;;22.95;78.49
37848;BME280;23688;33.130;-117.188;2023-07-16T01:42:43;99024.78;;;22.76;79.03
37848;BME280;23688;33.130;-117.188;2023-07-16T01:45:09;99027.63;;;22.64;80.09
37848;BME280;23688;33.130;-117.188;2023-07-16T01:50:25;99029.53;;;22.54;81.16
37848;BME280;23688;33.130;-117.188;2023-07-16T01:52:51;99027.69;;;22.59;81.03
37848;BME280;23688;33.130;-117.188;2023-07-16T01:55:18;99007.56;;;22.49;80.22
37848;BME280;23688;33.130;-117.188;2023-07-16T01:57:44;99019.31;;;22.30;81.92
37848;BME280;23688;33.130;-117.188;2023-07-16T02:00:11;99027.22;;;22.31;82.39
37848;BME280;23688;33.130;-117.188;2023-07-16T02:02:38;99030.00;;;22.22;82.47
37848;BME280;23688;33.130;-117.188;2023-07-16T02:05:05;99032.91;;;21.96;83.70
37848;BME280;23688;33.130;-117.188;2023-07-16T02:07:31;99027.97;;;21.65;85.73
37848;BME280;23688;33.130;-117.188;2023-07-16T02:09:57;99033.47;;;21.47;87.05
37848;BME280;23688;33.130;-117.188;2023-07-16T02:12:25;99051.25;;;21.23;88.88
37848;BME280;23688;33.130;-117.188;2023-07-16T02:14:54;99049.75;;;20.93;90.98
37848;BME280;23688;33.130;-117.188;2023-07-16T02:17:20;99061.22;;;20.89;91.97
37848;BME280;23688;33.130;-117.188;2023-07-16T02:19:47;99052.56;;;20.65;92.86
37848;BME280;23688;33.130;-117.188;2023-07-16T02:22:13;99051.78;;;20.49;94.66
37848;BME280;23688;33.130;-117.188;2023-07-16T02:24:39;99056.16;;;20.50;95.19
37848;BME280;23688;33.130;-117.188;2023-07-16T02:27:06;99061.47;;;20.43;95.30
37848;BME280;23688;33.130;-117.188;2023-07-16T02:29:33;99060.66;;;20.33;96.05
37848;BME280;23688;33.130;-117.188;2023-07-16T02:31:59;99058.06;;;20.21;96.70
37848;BME280;23688;33.130;-117.188;2023-07-16T02:34:25;99044.94;;;20.12;97.78
37848;BME280;23688;33.130;-117.188;2023-07-16T02:36:52;99058.13;;;20.15;97.88
37848;BME280;23688;33.130;-117.188;2023-07-16T02:39:18;99052.84;;;20.08;98.78
37848;BME280;23688;33.130;-117.188;2023-07-16T02:41:44;99066.03;;;20.15;98.42
37848;BME280;23688;33.130;-117.188;2023-07-16T02:44:11;99059.94;;;19.97;99.43
37848;BME280;23688;33.130;-117.188;2023-07-16T02:46:38;99053.78;;;19.92;100.00
37848;BME280;23688;33.130;-117.188;2023-07-16T02:49:05;99056.38;;;20.09;99.40
37848;BME280;23688;33.130;-117.188;2023-07-16T02:51:31;99041.44;;;20.13;98.31
37848;BME280;23688;33.130;-117.188;2023-07-16T02:53:58;99052.81;;;20.18;97.88
37848;BME280;23688;33.130;-117.188;2023-07-16T02:56:24;99051.06;;;20.20;97.24
37848;BME280;23688;33.130;-117.188;2023-07-16T02:58:50;99059.00;;;20.17;97.32
37848;BME280;23688;33.130;-117.188;2023-07-16T03:01:17;99054.63;;;20.03;98.21
37848;BME280;23688;33.130;-117.188;2023-07-16T03:03:43;99063.47;;;19.82;99.96
37848;BME280;23688;33.130;-117.188;2023-07-16T03:06:09;99052.97;;;19.85;99.70
37848;BME280;23688;33.130;-117.188;2023-07-16T03:08:36;99071.44;;;19.72;100.00
37848;BME280;23688;33.130;-117.188;2023-07-16T03:11:02;99071.41;;;19.75;100.00
37848;BME280;23688;33.130;-117.188;2023-07-16T03:13:29;99074.94;;;19.54;100.00
37848;BME280;23688;33.130;-117.188;2023-07-16T03:15:55;99072.31;;;19.48;100.00
37848;BME280;23688;33.130;-117.188;2023-07-16T03:18:31;99067.06;;;19.31;100.00
37848;BME280;23688;33.130;-117.188;2023-07-16T03:20:57;99070.59;;;19.10;100.00
37848;BME280;23688;33.130;-117.188;2023-07-16T03:23:24;99067.94;;;19.03;100.00
37848;BME280;23688;33.130;-117.188;2023-07-16T03:25:53;99084.63;;;18.98;100.00
37848;BME280;23688;33.130;-117.188;2023-07-16T03:28:19;99085.47;;;18.94;100.00
37848;BME280;23688;33.130;-117.188;2023-07-16T03:30:50;99090.72;;;18.85;100.00
37848;BME280;23688;33.130;-117.188;2023-07-16T03:33:17;99075.75;;;18.60;100.00
37848;BME280;23688;33.130;-117.188;2023-07-16T03:35:48;99087.16;;;18.63;100.00
37848;BME280;23688;33.130;-117.188;2023-07-16T03:38:15;99089.78;;;18.61;100.00
37848;BME280;23688;33.130;-117.188;2023-07-16T03:40:49;99079.25;;;18.56;100.00
37848;BME280;23688;33.130;-117.188;2023-07-16T03:43:16;99086.28;;;18.59;100.00
37848;BME280;23688;33.130;-117.188;2023-07-16T03:45:43;99084.53;;;18.56;100.00
37848;BME280;23688;33.130;-117.188;2023-07-16T03:48:10;99078.38;;;18.62;100.00
37848;BME280;23688;33.130;-117.188;2023-07-16T03:50:36;99084.59;;;18.84;100.00
37848;BME280;23688;33.130;-117.188;2023-07-16T03:53:03;99074.97;;;19.00;100.00
37848;BME280;23688;33.130;-117.188;2023-07-16T03:55:30;99091.59;;;18.87;100.00
37848;BME280;23688;33.130;-117.188;2023-07-16T03:57:56;99096.91;;;19.13;100.00
37848;BME280;23688;33.130;-117.188;2023-07-16T04:00:22;99091.63;;;19.20;100.00
37848;BME280;23688;33.130;-117.188;2023-07-16T04:02:49;99096.91;;;19.34;100.00
37848;BME280;23688;33.130;-117.188;2023-07-16T04:05:15;99099.53;;;19.42;100.00
37848;BME280;23688;33.130;-117.188;2023-07-16T04:07:41;99091.63;;;19.54;100.00
37848;BME280;23688;33.130;-117.188;2023-07-16T04:10:08;99095.09;;;19.62;100.00
37848;BME280;23688;33.130;-117.188;2023-07-16T04:12:34;99099.53;;;19.56;100.00
37848;BME280;23688;33.130;-117.188;2023-07-16T04:15:01;99099.53;;;19.39;100.00
37848;BME280;23688;33.130;-117.188;2023-07-16T04:17:32;99103.03;;;19.35;100.00
37848;BME280;23688;33.130;-117.188;2023-07-16T04:19:59;99103.03;;;19.53;100.00
37848;BME280;23688;33.130;-117.188;2023-07-16T04:22:25;99100.38;;;19.67;100.00
37848;BME280;23688;33.130;-117.188;2023-07-16T04:24:53;99104.75;;;19.77;100.00
37848;BME280;23688;33.130;-117.188;2023-07-16T04:27:19;99104.78;;;19.79;100.00
37848;BME280;23688;33.130;-117.188;2023-07-16T04:29:45;99104.75;;;19.82;100.00
37848;BME280;23688;33.130;-117.188;2023-07-16T04:32:13;99120.53;;;19.89;100.00
37848;BME280;23688;33.130;-117.188;2023-07-16T04:34:40;99121.44;;;19.84;100.00
37848;BME280;23688;33.130;-117.188;2023-07-16T04:37:06;99126.72;;;19.58;100.00
37848;BME280;23688;33.130;-117.188;2023-07-16T04:39:33;99129.34;;;19.67;100.00
37848;BME280;23688;33.130;-117.188;2023-07-16T04:41:59;99130.25;;;19.77;100.00
37848;BME280;23688;33.130;-117.188;2023-07-16T04:44:25;99135.50;;;19.81;100.00
37848;BME280;23688;33.130;-117.188;2023-07-16T04:46:52;99148.66;;;19.84;100.00
37848;BME280;23688;33.130;-117.188;2023-07-16T04:49:18;99147.78;;;19.90;100.00
37848;BME280;23688;33.130;-117.188;2023-07-16T04:51:46;99147.81;;;19.73;100.00
37848;BME280;23688;33.130;-117.188;2023-07-16T04:54:13;99146.91;;;19.66;100.00
37848;BME280;23688;33.130;-117.188;2023-07-16T04:56:39;99149.56;;;19.51;100.00
37848;BME280;23688;33.130;-117.188;2023-07-16T04:59:05;99150.44;;;19.56;100.00
37848;BME280;23688;33.130;-117.188;2023-07-16T05:01:32;99155.69;;;19.56;100.00
37848;BME280;23688;33.130;-117.188;2023-07-16T05:03:58;99158.34;;;19.53;100.00
37848;BME280;23688;33.130;-117.188;2023-07-16T05:06:24;99155.69;;;19.56;100.00
37848;BME280;23688;33.130;-117.188;2023-07-16T05:08:51;99154.81;;;19.51;100.00
37848;BME280;23688;33.130;-117.188;2023-07-16T05:11:17;99160.06;;;19.48;100.00
37848;BME280;23688;33.130;-117.188;2023-07-16T05:13:43;99150.44;;;19.32;100.00
37848;BME280;23688;33.130;-117.188;2023-07-16T05:16:10;99156.56;;;19.17;100.00
37848;BME280;23688;33.130;-117.188;2023-07-16T05:18:36;99146.88;;;19.08;100.00
37848;BME280;23688;33.130;-117.188;2023-07-16T05:21:03;99146.00;;;19.00;100.00
37848;BME280;23688;33.130;-117.188;2023-07-16T05:23:29;99160.88;;;18.83;100.00
37848;BME280;23688;33.130;-117.188;2023-07-16T05:25:55;99153.88;;;18.91;100.00
37848;BME280;23688;33.130;-117.188;2023-07-16T05:28:21;99153.91;;;19.00;100.00
37848;BME280;23688;33.130;-117.188;2023-07-16T05:30:48;99148.63;;;19.06;100.00
37848;BME280;23688;33.130;-117.188;2023-07-16T05:33:14;99146.88;;;19.19;100.00
37848;BME280;23688;33.130;-117.188;2023-07-16T05:35:40;99155.66;;;19.16;100.00
37848;BME280;23688;33.130;-117.188;2023-07-16T05:38:07;99145.13;;;19.21;100.00
37848;BME280;23688;33.130;-117.188;2023-07-16T05:40:33;99138.13;;;19.40;100.00
37848;BME280;23688;33.130;-117.188;2023-07-16T05:42:59;99141.66;;;19.45;100.00
37848;BME280;23688;33.130;-117.188;2023-07-16T05:45:25;99135.50;;;19.48;100.00
37848;BME280;23688;33.130;-117.188;2023-07-16T05:47:52;99124.97;;;19.52;100.00
37848;BME280;23688;33.130;-117.188;2023-07-16T05:50:18;99134.63;;;19.59;100.00
37848;BME280;23688;33.130;-117.188;2023-07-16T05:52:44;99132.00;;;19.65;100.00
37848;BME280;23688;33.130;-117.188;2023-07-16T05:55:13;99124.13;;;19.73;100.00
37848;BME280;23688;33.130;-117.188;2023-07-16T05:57:39;99131.13;;;19.79;100.00
37848;BME280;23688;33.130;-117.188;2023-07-16T06:00:06;99124.97;;;19.77;100.00
37848;BME280;23688;33.130;-117.188;2023-07-16T06:02:33;99123.22;;;19.79;100.00
37848;BME280;23688;33.130;-117.188;2023-07-16T06:04:59;99131.09;;;19.86;100.00
37848;BME280;23688;33.130;-117.188;2023-07-16T06:07:27;99136.38;;;19.93;100.00
37848;BME280;23688;33.130;-117.188;2023-07-16T06:09:54;99134.59;;;19.93;100.00
37848;BME280;23688;33.130;-117.188;2023-07-16T06:12:20;99132.84;;;19.95;100.00
37848;BME280;23688;33.130;-117.188;2023-07-16T06:14:46;99131.94;;;19.96;100.00
37848;BME280;23688;33.130;-117.188;2023-07-16T06:17:13;99131.09;;;19.96;100.00
37848;BME280;23688;33.130;-117.188;2023-07-16T06:19:39;99127.56;;;19.98;100.00
37848;BME280;23688;33.130;-117.188;2023-07-16T06:22:06;99123.19;;;19.97;100.00
37848;BME280;23688;33.130;-117.188;2023-07-16T06:24:35;99127.56;;;20.00;99.91
37848;BME280;23688;33.130;-117.188;2023-07-16T06:27:01;99126.69;;;20.01;99.54
37848;BME280;23688;33.130;-117.188;2023-07-16T06:29:28;99139.00;;;19.86;100.00
37848;BME280;23688;33.130;-117.188;2023-07-16T06:31:58;99135.53;;;19.69;100.00
37848;BME280;23688;33.130;-117.188;2023-07-16T06:34:25;99128.47;;;19.65;100.00
37848;BME280;23688;33.130;-117.188;2023-07-16T06:36:51;99146.94;;;19.70;100.00
37848;BME280;23688;33.130;-117.188;2023-07-16T06:39:18;99142.53;;;19.70;100.00
37848;BME280;23688;33.130;-117.188;2023-07-16T06:41:44;99136.38;;;19.66;100.00
37848;BME280;23688;33.130;-117.188;2023-07-16T06:44:10;99130.22;;;19.63;100.00
37848;BME280;23688;33.130;-117.188;2023-07-16T06:46:36;99124.97;;;19.31;100.00
37848;BME280;23688;33.130;-117.188;2023-07-16T06:49:05;99124.09;;;19.25;100.00
37848;BME280;23688;33.130;-117.188;2023-07-16T06:51:33;99130.22;;;19.14;100.00
37848;BME280;23688;33.130;-117.188;2023-07-16T06:54:00;99139.91;;;19.15;100.00
37848;BME280;23688;33.130;-117.188;2023-07-16T06:56:26;99131.13;;;19.02;100.00
37848;BME280;23688;33.130;-117.188;2023-07-16T06:58:52;99120.53;;;18.90;100.00
37848;BME280;23688;33.130;-117.188;2023-07-16T07:01:18;99132.00;;;19.07;100.00
37848;BME280;23688;33.130;-117.188;2023-07-16T07:03:45;99132.88;;;19.20;100.00
37848;BME280;23688;33.130;-117.188;2023-07-16T07:06:11;99127.59;;;19.31;100.00
37848;BME280;23688;33.130;-117.188;2023-07-16T07:08:37;99130.22;;;19.26;100.00
37848;BME280;23688;33.130;-117.188;2023-07-16T07:11:04;99134.63;;;19.27;100.00
37848;BME280;23688;33.130;-117.188;2023-07-16T07:13:30;99117.09;;;19.20;100.00
37848;BME280;23688;33.130;-117.188;2023-07-16T07:15:57;99132.88;;;19.18;100.00
37848;BME280;23688;33.130;-117.188;2023-07-16T07:18:23;99129.34;;;19.10;100.00
37848;BME280;23688;33.130;-117.188;2023-07-16T07:20:49;99128.47;;;18.99;100.00
37848;BME280;23688;33.130;-117.188;2023-07-16T07:23:17;99146.00;;;18.94;100.00
37848;BME280;23688;33.130;-117.188;2023-07-16T07:25:43;99140.63;;;18.72;100.00
37848;BME280;23688;33.130;-117.188;2023-07-16T07:28:09;99135.41;;;18.75;100.00
37848;BME280;23688;33.130;-117.188;2023-07-16T07:30:36;99145.03;;;18.73;100.00
37848;BME280;23688;33.130;-117.188;2023-07-16T07:33:03;99144.94;;;18.50;100.00
37848;BME280;23688;33.130;-117.188;2023-07-16T07:35:29;99144.94;;;18.46;100.00
37848;BME280;23688;33.130;-117.188;2023-07-16T07:37:55;99155.41;;;18.38;100.00
37848;BME280;23688;33.130;-117.188;2023-07-16T07:40:23;99159.81;;;18.42;100.00
37848;BME280;23688;33.130;-117.188;2023-07-16T07:42:51;99157.25;;;18.51;100.00
37848;BME280;23688;33.130;-117.188;2023-07-16T07:45:17;99151.13;;;18.61;100.00
37848;BME280;23688;33.130;-117.188;2023-07-16T07:47:43;99159.03;;;18.66;100.00
37848;BME280;23688;33.130;-117.188;2023-07-16T07:50:10;99141.50;;;18.65;100.00
37848;BME280;23688;33.130;-117.188;2023-07-16T07:52:36;99156.44;;;18.74;100.00
37848;BME280;23688;33.130;-117.188;2023-07-16T07:55:03;99143.28;;;18.71;100.00
37848;BME280;23688;33.130;-117.188;2023-07-16T07:57:29;99147.75;;;18.93;100.00
37848;BME280;23688;33.130;-117.188;2023-07-16T07:59:55;99153.03;;;19.06;100.00
37848;BME280;23688;33.130;-117.188;2023-07-16T08:02:25;99149.50;;;19.07;100.00
37848;BME280;23688;33.130;-117.188;2023-07-16T08:04:55;99152.19;;;19.14;100.00
37848;BME280;23688;33.130;-117.188;2023-07-16T08:07:23;99147.78;;;19.22;100.00
37848;BME280;23688;33.130;-117.188;2023-07-16T08:09:49;99158.31;;;19.24;100.00
37848;BME280;23688;33.130;-117.188;2023-07-16T08:12:15;99152.16;;;19.23;100.00
37848;BME280;23688;33.130;-117.188;2023-07-16T08:14:42;99149.53;;;19.19;100.00
37848;BME280;23688;33.130;-117.188;2023-07-16T08:17:08;99156.56;;;19.29;100.00
37848;BME280;23688;33.130;-117.188;2023-07-16T08:19:34;99132.88;;;19.24;100.00
37848;BME280;23688;33.130;-117.188;2023-07-16T08:22:01;99145.16;;;19.32;100.00
37848;BME280;23688;33.130;-117.188;2023-07-16T08:24:27;99131.09;;;19.36;100.00
37848;BME280;23688;33.130;-117.188;2023-07-16T08:26:53;99124.97;;;19.32;100.00
37848;BME280;23688;33.130;-117.188;2023-07-16T08:29:20;99140.78;;;19.40;100.00
37848;BME280;23688;33.130;-117.188;2023-07-16T08:31:46;99131.09;;;19.36;100.00
37848;BME280;23688;33.130;-117.188;2023-07-16T08:34:12;99130.25;;;19.40;100.00
37848;BME280;23688;33.130;-117.188;2023-07-16T08:36:38;99126.75;;;19.39;100.00
37848;BME280;23688;33.130;-117.188;2023-07-16T08:39:05;99119.72;;;19.34;100.00
37848;BME280;23688;33.130;-117.188;2023-07-16T08:41:31;99127.59;;;19.35;100.00
37848;BME280;23688;33.130;-117.188;2023-07-16T08:43:57;99128.50;;;19.34;100.00
37848;BME280;23688;33.130;-117.188;2023-07-16T08:46:25;99110.06;;;19.30;100.00
37848;BME280;23688;33.130;-117.188;2023-07-16T08:48:52;99124.97;;;19.40;100.00
37848;BME280;23688;33.130;-117.188;2023-07-16T08:51:21;99127.59;;;19.43;100.00
37848;BME280;23688;33.130;-117.188;2023-07-16T08:53:49;99124.09;;;19.42;100.00
37848;BME280;23688;33.130;-117.188;2023-07-16T08:56:15;99127.59;;;19.43;100.00
37848;BME280;23688;33.130;-117.188;2023-07-16T08:58:43;99118.81;;;19.38;100.00
37848;BME280;23688;33.130;-117.188;2023-07-16T09:01:10;99113.59;;;19.32;100.00
37848;BME280;23688;33.130;-117.188;2023-07-16T09:03:38;99128.47;;;19.33;100.00
37848;BME280;23688;33.130;-117.188;2023-07-16T09:06:06;99101.28;;;19.21;100.00
37848;BME280;23688;33.130;-117.188;2023-07-16T09:08:33;99112.69;;;19.34;100.00
37848;BME280;23688;33.130;-117.188;2023-07-16T09:10:59;99109.19;;;19.34;100.00
37848;BME280;23688;33.130;-117.188;2023-07-16T09:13:26;99105.69;;;19.32;100.00
37848;BME280;23688;33.130;-117.188;2023-07-16T09:15:57;99108.28;;;19.33;100.00
37848;BME280;23688;33.130;-117.188;2023-07-16T09:18:26;99117.06;;;19.35;100.00
37848;BME280;23688;33.130;-117.188;2023-07-16T09:20:56;99113.56;;;19.35;100.00
37848;BME280;23688;33.130;-117.188;2023-07-16T09:23:26;99106.56;;;19.24;100.00
37848;BME280;23688;33.130;-117.188;2023-07-16T09:25:56;99110.06;;;19.22;100.00
37848;BME280;23688;33.130;-117.188;2023-07-16T09:28:23;99089.88;;;19.12;100.00
37848;BME280;23688;33.130;-117.188;2023-07-16T09:30:50;99109.19;;;19.17;100.00
37848;BME280;23688;33.130;-117.188;2023-07-16T09:33:19;99088.13;;;19.12;100.00
37848;BME280;23688;33.130;-117.188;2023-07-16T09:35:50;99097.78;;;19.19;100.00
37848;BME280;23688;33.130;-117.188;2023-07-16T09:38:18;99087.25;;;19.18;100.00
37848;BME280;23688;33.130;-117.188;2023-07-16T09:40:45;99095.13;;;19.21;100.00
37848;BME280;23688;33.130;-117.188;2023-07-16T09:43:12;99077.59;;;19.14;100.00
37848;BME280;23688;33.130;-117.188;2023-07-16T09:45:39;99086.38;;;19.17;100.00
37848;BME280;23688;33.130;-117.188;2023-07-16T09:48:06;99082.88;;;19.15;100.00
37848;BME280;23688;33.130;-117.188;2023-07-16T09:50:33;99085.50;;;19.15;100.00
37848;BME280;23688;33.130;-117.188;2023-07-16T09:53:01;99082.88;;;19.17;100.00
37848;BME280;23688;33.130;-117.188;2023-07-16T09:55:30;99066.19;;;19.13;100.00
37848;BME280;23688;33.130;-117.188;2023-07-16T09:57:57;99074.97;;;19.20;100.00
37848;BME280;23688;33.130;-117.188;2023-07-16T10:00:24;99060.06;;;19.11;100.00
37848;BME280;23688;33.130;-117.188;2023-07-16T10:02:51;99073.19;;;19.19;100.00
37848;BME280;23688;33.130;-117.188;2023-07-16T10:05:23;99076.72;;;19.15;100.00
37848;BME280;23688;33.130;-117.188;2023-07-16T10:07:56;99075.84;;;19.16;100.00
37848;BME280;23688;33.130;-117.188;2023-07-16T10:10:37;99100.41;;;19.19;100.00
37848;BME280;23688;33.130;-117.188;2023-07-16T10:13:06;99089.00;;;19.13;100.00
37848;BME280;23688;33.130;-117.188;2023-07-16T10:15:34;99101.28;;;19.09;100.00
37848;BME280;23688;33.130;-117.188;2023-07-16T10:18:00;99117.06;;;19.09;100.00
37848;BME280;23688;33.130;-117.188;2023-07-16T10:20:36;99104.78;;;18.93;100.00
37848;BME280;23688;33.130;-117.188;2023-07-16T10:23:13;99087.22;;;18.89;100.00
37848;BME280;23688;33.130;-117.188;2023-07-16T10:25:41;99094.25;;;18.85;100.00
37848;BME280;23688;33.130;-117.188;2023-07-16T10:28:23;99091.56;;;18.64;100.00
37848;BME280;23688;33.130;-117.188;2023-07-16T10:30:50;99087.16;;;18.59;100.00
37848;BME280;23688;33.130;-117.188;2023-07-16T10:33:17;99101.16;;;18.54;100.00
37848;BME280;23688;33.130;-117.188;2023-07-16T10:35:45;99090.66;;;18.51;100.00
37848;BME280;23688;33.130;-117.188;2023-07-16T10:38:12;99090.69;;;18.66;100.00
37848;BME280;23688;33.130;-117.188;2023-07-16T10:40:41;99097.69;;;18.75;100.00
37848;BME280;23688;33.130;-117.188;2023-07-16T10:43:08;99093.38;;;18.83;100.00
37848;BME280;23688;33.130;-117.188;2023-07-16T10:45:35;99094.25;;;18.87;100.00
37848;BME280;23688;33.130;-117.188;2023-07-16T10:48:01;99091.63;;;18.91;100.00
37848;BME280;23688;33.130;-117.188;2023-07-16T10:50:28;99095.13;;;18.92;100.00
37848;BME280;23688;33.130;-117.188;2023-07-16T10:52:55;99093.38;;;18.97;100.00
37848;BME280;23688;33.130;-117.188;2023-07-16T10:55:22;99089.88;;;18.98;100.00
37848;BME280;23688;33.130;-117.188;2023-07-16T10:57:50;99091.63;;;19.00;100.00
37848;BME280;23688;33.130;-117.188;2023-07-16T11:00:17;99096.91;;;19.00;100.00
37848;BME280;23688;33.130;-117.188;2023-07-16T11:02:47;99101.28;;;19.00;100.00
37848;BME280;23688;33.130;-117.188;2023-07-16T11:05:16;99098.63;;;19.01;100.00
37848;BME280;23688;33.130;-117.188;2023-07-16T11:07:44;99102.16;;;19.03;100.00
37848;BME280;23688;33.130;-117.188;2023-07-16T11:10:11;99109.16;;;19.06;100.00
37848;BME280;23688;33.130;-117.188;2023-07-16T11:12:37;99115.31;;;19.00;100.00
37848;BME280;23688;33.130;-117.188;2023-07-16T11:15:03;99120.56;;;18.93;100.00
37848;BME280;23688;33.130;-117.188;2023-07-16T11:17:30;99116.16;;;18.92;100.00
37848;BME280;23688;33.130;-117.188;2023-07-16T11:20:00;99123.22;;;18.97;100.00
37848;BME280;23688;33.130;-117.188;2023-07-16T11:22:27;99126.69;;;18.99;100.00
37848;BME280;23688;33.130;-117.188;2023-07-16T11:24:54;99137.25;;;19.02;100.00
37848;BME280;23688;33.130;-117.188;2023-07-16T11:27:27;99134.59;;;19.01;100.00
37848;BME280;23688;33.130;-117.188;2023-07-16T11:29:56;99130.19;;;18.97;100.00
37848;BME280;23688;33.130;-117.188;2023-07-16T11:32:37;99126.72;;;18.98;100.00
37848;BME280;23688;33.130;-117.188;2023-07-16T11:35:08;99129.31;;;18.87;100.00
37848;BME280;23688;33.130;-117.188;2023-07-16T11:37:35;99134.56;;;18.76;100.00
37848;BME280;23688;33.130;-117.188;2023-07-16T11:40:10;99138.88;;;18.64;100.00
37848;BME280;23688;33.130;-117.188;2023-07-16T11:42:40;99152.09;;;18.79;100.00
37848;BME280;23688;33.130;-117.188;2023-07-16T11:45:27;99150.38;;;18.86;100.00
37848;BME280;23688;33.130;-117.188;2023-07-16T11:47:54;99149.50;;;18.88;100.00
37848;BME280;23688;33.130;-117.188;2023-07-16T11:50:21;99146.00;;;18.91;100.00
37848;BME280;23688;33.130;-117.188;2023-07-16T11:52:55;99156.53;;;18.92;100.00
37848;BME280;23688;33.130;-117.188;2023-07-16T11:55:21;99152.13;;;18.93;100.00
37848;BME280;23688;33.130;-117.188;2023-07-16T11:57:51;99149.50;;;18.88;100.00
37848;BME280;23688;33.130;-117.188;2023-07-16T12:00:17;99158.25;;;18.89;100.00
37848;BME280;23688;33.130;-117.188;2023-07-16T12:02:45;99167.03;;;18.91;100.00
37848;BME280;23688;33.130;-117.188;2023-07-16T12:05:18;99158.25;;;18.86;100.00
37848;BME280;23688;33.130;-117.188;2023-07-16T12:07:44;99174.94;;;18.92;100.00
37848;BME280;23688;33.130;-117.188;2023-07-16T12:10:11;99157.38;;;18.90;100.00
37848;BME280;23688;33.130;-117.188;2023-07-16T12:12:37;99165.25;;;18.90;100.00
37848;BME280;23688;33.130;-117.188;2023-07-16T12:15:07;99172.28;;;18.91;100.00
37848;BME280;23688;33.130;-117.188;2023-07-16T12:17:34;99172.28;;;18.94;100.00
37848;BME280;23688;33.130;-117.188;2023-07-16T12:20:01;99175.81;;;18.96;100.00
37848;BME280;23688;33.130;-117.188;2023-07-16T12:22:27;99160.00;;;18.90;100.00
37848;BME280;23688;33.130;-117.188;2023-07-16T12:24:53;99171.44;;;18.95;100.00
37848;BME280;23688;33.130;-117.188;2023-07-16T12:27:20;99152.97;;;18.84;100.00
37848;BME280;23688;33.130;-117.188;2023-07-16T12:29:47;99153.88;;;18.83;100.00
37848;BME280;23688;33.130;-117.188;2023-07-16T12:32:13;99163.50;;;18.89;100.00